sensor_id;sensor_type;location;lat;lon;timestamp;P1;durP1;ratioP1;P2;durP2;ratioP2
72132;SDS011;60008;50.826;6.896;2023-03-19T00:05:29;5.57;;;1.98;;
72132;SDS011;60008;50.826;6.896;2023-03-19T00:08:14;5.85;;;2.05;;
72132;SDS011;60008;50.826;6.896;2023-03-19T00:11:04;3.58;;;1.73;;
72132;SDS011;60008;50.826;6.896;2023-03-19T00:13:55;7.00;;;2.50;;
72132;SDS011;60008;50.826;6.896;2023-03-19T00:16:40;5.23;;;2.10;;
72132;SDS011;60008;50.826;6.896;2023-03-19T00:19:26;3.42;;;1.65;;
72132;SDS011;60008;50.826;6.896;2023-03-19T00:22:11;5.75;;;2.03;;
72132;SDS011;60008;50.826;6.896;2023-03-19T00:24:57;4.55;;;1.73;;
72132;SDS011;60008;50.826;6.896;2023-03-19T00:27:42;5.65;;;2.60;;
72132;SDS011;60008;50.826;6.896;2023-03-19T00:30:28;7.43;;;2.33;;
72132;SDS011;60008;50.826;6.896;2023-03-19T00:33:13;5.53;;;2.15;;
72132;SDS011;60008;50.826;6.896;2023-03-19T00:35:58;5.95;;;2.30;;
72132;SDS011;60008;50.826;6.896;2023-03-19T00:38:44;4.95;;;1.80;;
72132;SDS011;60008;50.826;6.896;2023-03-19T00:41:33;9.48;;;2.35;;
72132;SDS011;60008;50.826;6.896;2023-03-19T00:44:19;5.37;;;2.00;;
72132;SDS011;60008;50.826;6.896;2023-03-19T00:47:08;7.88;;;2.38;;
72132;SDS011;60008;50.826;6.896;2023-03-19T00:49:55;6.32;;;2.03;;
72132;SDS011;60008;50.826;6.896;2023-03-19T00:52:40;5.30;;;2.13;;
72132;SDS011;60008;50.826;6.896;2023-03-19T00:55:28;5.72;;;2.38;;
72132;SDS011;60008;50.826;6.896;2023-03-19T00:58:13;8.27;;;2.40;;
72132;SDS011;60008;50.826;6.896;2023-03-19T01:00:58;8.52;;;2.10;;
72132;SDS011;60008;50.826;6.896;2023-03-19T01:03:45;11.00;;;2.20;;
72132;SDS011;60008;50.826;6.896;2023-03-19T01:06:30;10.10;;;2.40;;
72132;SDS011;60008;50.826;6.896;2023-03-19T01:09:15;6.47;;;2.20;;
72132;SDS011;60008;50.826;6.896;2023-03-19T01:12:01;6.80;;;2.50;;
72132;SDS011;60008;50.826;6.896;2023-03-19T01:14:48;10.05;;;2.63;;
72132;SDS011;60008;50.826;6.896;2023-03-19T01:17:33;6.13;;;2.33;;
72132;SDS011;60008;50.826;6.896;2023-03-19T01:20:18;7.35;;;2.63;;
72132;SDS011;60008;50.826;6.896;2023-03-19T01:23:04;4.93;;;2.30;;
72132;SDS011;60008;50.826;6.896;2023-03-19T01:25:50;5.67;;;2.70;;
72132;SDS011;60008;50.826;6.896;2023-03-19T01:28:37;7.65;;;2.85;;
72132;SDS011;60008;50.826;6.896;2023-03-19T01:31:23;6.50;;;2.42;;
72132;SDS011;60008;50.826;6.896;2023-03-19T01:34:08;7.05;;;2.65;;
72132;SDS011;60008;50.826;6.896;2023-03-19T01:36:53;6.18;;;2.40;;
72132;SDS011;60008;50.826;6.896;2023-03-19T01:39:38;5.90;;;2.30;;
72132;SDS011;60008;50.826;6.896;2023-03-19T01:42:24;5.43;;;2.42;;
72132;SDS011;60008;50.826;6.896;2023-03-19T01:48:42;4.88;;;2.03;;
72132;SDS011;60008;50.826;6.896;2023-03-19T01:51:29;6.45;;;2.33;;
72132;SDS011;60008;50.826;6.896;2023-03-19T01:54:19;5.13;;;1.90;;
72132;SDS011;60008;50.826;6.896;2023-03-19T01:57:10;8.35;;;2.20;;
72132;SDS011;60008;50.826;6.896;2023-03-19T01:59:59;9.55;;;2.60;;
72132;SDS011;60008;50.826;6.896;2023-03-19T02:02:46;6.78;;;2.30;;
72132;SDS011;60008;50.826;6.896;2023-03-19T02:08:39;6.87;;;2.20;;
72132;SDS011;60008;50.826;6.896;2023-03-19T02:11:25;9.82;;;2.10;;
72132;SDS011;60008;50.826;6.896;2023-03-19T02:14:10;4.18;;;1.70;;
72132;SDS011;60008;50.826;6.896;2023-03-19T02:16:58;5.03;;;1.75;;
72132;SDS011;60008;50.826;6.896;2023-03-19T02:19:55;5.90;;;2.00;;
72132;SDS011;60008;50.826;6.896;2023-03-19T02:22:43;4.37;;;1.43;;
72132;SDS011;60008;50.826;6.896;2023-03-19T02:28:30;3.38;;;1.38;;
72132;SDS011;60008;50.826;6.896;2023-03-19T02:31:17;4.95;;;1.50;;
72132;SDS011;60008;50.826;6.896;2023-03-19T02:34:51;4.05;;;1.70;;
72132;SDS011;60008;50.826;6.896;2023-03-19T02:37:19;3.47;;;1.30;;
72132;SDS011;60008;50.826;6.896;2023-03-19T02:40:21;3.05;;;1.35;;
72132;SDS011;60008;50.826;6.896;2023-03-19T02:43:11;3.45;;;1.30;;
72132;SDS011;60008;50.826;6.896;2023-03-19T02:45:56;6.07;;;1.55;;
72132;SDS011;60008;50.826;6.896;2023-03-19T02:48:45;4.20;;;1.73;;
72132;SDS011;60008;50.826;6.896;2023-03-19T02:51:29;4.07;;;1.70;;
72132;SDS011;60008;50.826;6.896;2023-03-19T02:54:20;5.25;;;1.90;;
72132;SDS011;60008;50.826;6.896;2023-03-19T02:57:05;4.47;;;1.70;;
72132;SDS011;60008;50.826;6.896;2023-03-19T02:59:50;4.75;;;1.60;;
72132;SDS011;60008;50.826;6.896;2023-03-19T03:02:38;3.63;;;1.48;;
72132;SDS011;60008;50.826;6.896;2023-03-19T03:05:23;6.53;;;1.70;;
72132;SDS011;60008;50.826;6.896;2023-03-19T03:08:09;6.18;;;1.60;;
72132;SDS011;60008;50.826;6.896;2023-03-19T03:10:57;4.15;;;1.70;;
72132;SDS011;60008;50.826;6.896;2023-03-19T03:13:41;3.45;;;1.85;;
72132;SDS011;60008;50.826;6.896;2023-03-19T03:16:35;5.47;;;1.92;;
72132;SDS011;60008;50.826;6.896;2023-03-19T03:19:21;4.57;;;2.00;;
72132;SDS011;60008;50.826;6.896;2023-03-19T03:22:09;6.65;;;2.10;;
72132;SDS011;60008;50.826;6.896;2023-03-19T03:24:54;6.63;;;2.22;;
72132;SDS011;60008;50.826;6.896;2023-03-19T03:27:39;4.03;;;1.90;;
72132;SDS011;60008;50.826;6.896;2023-03-19T03:30:25;3.58;;;1.73;;
72132;SDS011;60008;50.826;6.896;2023-03-19T03:33:10;4.00;;;1.80;;
72132;SDS011;60008;50.826;6.896;2023-03-19T03:35:56;5.35;;;1.83;;
72132;SDS011;60008;50.826;6.896;2023-03-19T03:38:41;4.22;;;1.90;;
72132;SDS011;60008;50.826;6.896;2023-03-19T03:41:26;5.50;;;2.30;;
72132;SDS011;60008;50.826;6.896;2023-03-19T03:44:13;5.32;;;2.42;;
72132;SDS011;60008;50.826;6.896;2023-03-19T03:47:02;4.73;;;1.93;;
72132;SDS011;60008;50.826;6.896;2023-03-19T03:49:52;5.57;;;2.50;;
72132;SDS011;60008;50.826;6.896;2023-03-19T03:52:38;8.30;;;2.30;;
72132;SDS011;60008;50.826;6.896;2023-03-19T03:55:23;5.13;;;1.83;;
72132;SDS011;60008;50.826;6.896;2023-03-19T03:58:08;4.18;;;1.80;;
72132;SDS011;60008;50.826;6.896;2023-03-19T04:00:54;3.07;;;1.70;;
72132;SDS011;60008;50.826;6.896;2023-03-19T04:03:39;5.32;;;1.98;;
72132;SDS011;60008;50.826;6.896;2023-03-19T04:06:25;5.63;;;1.75;;
72132;SDS011;60008;50.826;6.896;2023-03-19T04:09:13;5.20;;;1.70;;
72132;SDS011;60008;50.826;6.896;2023-03-19T04:11:58;4.57;;;1.70;;
72132;SDS011;60008;50.826;6.896;2023-03-19T04:14:44;4.60;;;2.07;;
72132;SDS011;60008;50.826;6.896;2023-03-19T04:17:29;4.18;;;1.65;;
72132;SDS011;60008;50.826;6.896;2023-03-19T04:20:14;4.45;;;1.60;;
72132;SDS011;60008;50.826;6.896;2023-03-19T04:23:02;4.18;;;1.75;;
72132;SDS011;60008;50.826;6.896;2023-03-19T04:25:56;5.22;;;2.03;;
72132;SDS011;60008;50.826;6.896;2023-03-19T04:28:45;5.93;;;2.40;;
72132;SDS011;60008;50.826;6.896;2023-03-19T04:31:30;5.13;;;1.90;;
72132;SDS011;60008;50.826;6.896;2023-03-19T04:34:18;5.93;;;1.80;;
72132;SDS011;60008;50.826;6.896;2023-03-19T04:37:03;6.38;;;1.90;;
72132;SDS011;60008;50.826;6.896;2023-03-19T04:39:48;5.15;;;1.70;;
72132;SDS011;60008;50.826;6.896;2023-03-19T04:42:33;5.27;;;1.67;;
72132;SDS011;60008;50.826;6.896;2023-03-19T04:45:18;4.55;;;1.73;;
72132;SDS011;60008;50.826;6.896;2023-03-19T04:48:05;3.90;;;1.85;;
72132;SDS011;60008;50.826;6.896;2023-03-19T04:50:51;5.20;;;1.55;;
72132;SDS011;60008;50.826;6.896;2023-03-19T04:53:37;4.32;;;1.77;;
72132;SDS011;60008;50.826;6.896;2023-03-19T04:56:24;5.13;;;1.60;;
72132;SDS011;60008;50.826;6.896;2023-03-19T04:59:09;5.50;;;1.88;;
72132;SDS011;60008;50.826;6.896;2023-03-19T05:01:54;4.72;;;1.80;;
72132;SDS011;60008;50.826;6.896;2023-03-19T05:04:39;4.10;;;1.85;;
72132;SDS011;60008;50.826;6.896;2023-03-19T05:07:24;5.00;;;1.90;;
72132;SDS011;60008;50.826;6.896;2023-03-19T05:10:10;5.40;;;1.57;;
72132;SDS011;60008;50.826;6.896;2023-03-19T05:12:55;6.50;;;2.08;;
72132;SDS011;60008;50.826;6.896;2023-03-19T05:15:43;6.50;;;2.05;;
72132;SDS011;60008;50.826;6.896;2023-03-19T05:18:31;6.15;;;1.83;;
72132;SDS011;60008;50.826;6.896;2023-03-19T05:21:17;4.85;;;1.73;;
72132;SDS011;60008;50.826;6.896;2023-03-19T05:24:02;4.97;;;1.73;;
72132;SDS011;60008;50.826;6.896;2023-03-19T05:26:54;4.25;;;1.92;;
72132;SDS011;60008;50.826;6.896;2023-03-19T05:29:39;3.97;;;1.80;;
72132;SDS011;60008;50.826;6.896;2023-03-19T05:32:26;6.68;;;1.95;;
72132;SDS011;60008;50.826;6.896;2023-03-19T05:35:12;3.28;;;1.80;;
72132;SDS011;60008;50.826;6.896;2023-03-19T05:37:57;3.07;;;1.50;;
72132;SDS011;60008;50.826;6.896;2023-03-19T05:40:45;5.00;;;1.73;;
72132;SDS011;60008;50.826;6.896;2023-03-19T05:43:30;3.78;;;1.67;;
72132;SDS011;60008;50.826;6.896;2023-03-19T05:46:17;3.97;;;2.00;;
72132;SDS011;60008;50.826;6.896;2023-03-19T05:49:03;5.72;;;1.88;;
72132;SDS011;60008;50.826;6.896;2023-03-19T05:51:48;4.47;;;1.97;;
72132;SDS011;60008;50.826;6.896;2023-03-19T05:54:33;3.80;;;1.50;;
72132;SDS011;60008;50.826;6.896;2023-03-19T05:57:19;5.45;;;2.08;;
72132;SDS011;60008;50.826;6.896;2023-03-19T06:00:05;4.07;;;1.60;;
72132;SDS011;60008;50.826;6.896;2023-03-19T06:02:51;3.17;;;1.50;;
72132;SDS011;60008;50.826;6.896;2023-03-19T06:05:39;3.60;;;1.70;;
72132;SDS011;60008;50.826;6.896;2023-03-19T06:08:25;4.65;;;1.95;;
72132;SDS011;60008;50.826;6.896;2023-03-19T06:11:10;7.68;;;2.40;;
72132;SDS011;60008;50.826;6.896;2023-03-19T06:13:56;4.78;;;2.00;;
72132;SDS011;60008;50.826;6.896;2023-03-19T06:16:41;6.32;;;2.15;;
72132;SDS011;60008;50.826;6.896;2023-03-19T06:19:26;6.47;;;2.57;;
72132;SDS011;60008;50.826;6.896;2023-03-19T06:22:11;4.28;;;1.98;;
72132;SDS011;60008;50.826;6.896;2023-03-19T06:24:56;8.05;;;2.42;;
72132;SDS011;60008;50.826;6.896;2023-03-19T06:27:41;9.90;;;2.58;;
72132;SDS011;60008;50.826;6.896;2023-03-19T06:30:33;6.38;;;2.53;;
72132;SDS011;60008;50.826;6.896;2023-03-19T06:33:19;5.90;;;2.50;;
72132;SDS011;60008;50.826;6.896;2023-03-19T06:36:04;13.52;;;4.30;;
72132;SDS011;60008;50.826;6.896;2023-03-19T06:38:50;17.20;;;5.82;;
72132;SDS011;60008;50.826;6.896;2023-03-19T06:41:35;15.68;;;5.43;;
72132;SDS011;60008;50.826;6.896;2023-03-19T06:44:20;13.32;;;4.97;;
72132;SDS011;60008;50.826;6.896;2023-03-19T06:47:06;14.13;;;4.17;;
72132;SDS011;60008;50.826;6.896;2023-03-19T06:49:54;10.45;;;3.08;;
72132;SDS011;60008;50.826;6.896;2023-03-19T06:52:40;14.60;;;4.10;;
72132;SDS011;60008;50.826;6.896;2023-03-19T06:55:30;6.43;;;2.65;;
72132;SDS011;60008;50.826;6.896;2023-03-19T06:58:15;7.90;;;2.10;;
72132;SDS011;60008;50.826;6.896;2023-03-19T07:01:00;5.57;;;2.20;;
72132;SDS011;60008;50.826;6.896;2023-03-19T07:03:46;6.18;;;2.17;;
72132;SDS011;60008;50.826;6.896;2023-03-19T07:06:34;8.52;;;5.22;;
72132;SDS011;60008;50.826;6.896;2023-03-19T07:09:19;9.07;;;5.70;;
72132;SDS011;60008;50.826;6.896;2023-03-19T07:12:13;7.28;;;2.33;;
72132;SDS011;60008;50.826;6.896;2023-03-19T07:15:00;8.20;;;5.27;;
72132;SDS011;60008;50.826;6.896;2023-03-19T07:17:45;9.60;;;4.90;;
72132;SDS011;60008;50.826;6.896;2023-03-19T07:20:33;7.20;;;3.63;;
72132;SDS011;60008;50.826;6.896;2023-03-19T07:23:19;4.10;;;2.30;;
72132;SDS011;60008;50.826;6.896;2023-03-19T07:26:04;6.18;;;3.10;;
72132;SDS011;60008;50.826;6.896;2023-03-19T07:28:49;5.80;;;2.27;;
72132;SDS011;60008;50.826;6.896;2023-03-19T07:31:34;3.83;;;1.95;;
72132;SDS011;60008;50.826;6.896;2023-03-19T07:34:22;4.93;;;1.80;;
72132;SDS011;60008;50.826;6.896;2023-03-19T07:37:07;6.95;;;3.05;;
72132;SDS011;60008;50.826;6.896;2023-03-19T07:39:54;4.80;;;3.03;;
72132;SDS011;60008;50.826;6.896;2023-03-19T07:42:47;3.67;;;1.73;;
72132;SDS011;60008;50.826;6.896;2023-03-19T07:45:32;4.22;;;1.70;;
72132;SDS011;60008;50.826;6.896;2023-03-19T07:48:17;4.80;;;1.63;;
72132;SDS011;60008;50.826;6.896;2023-03-19T07:51:03;3.22;;;1.40;;
72132;SDS011;60008;50.826;6.896;2023-03-19T07:53:48;3.00;;;1.42;;
72132;SDS011;60008;50.826;6.896;2023-03-19T07:56:36;3.83;;;1.53;;
72132;SDS011;60008;50.826;6.896;2023-03-19T07:59:23;3.88;;;1.63;;
72132;SDS011;60008;50.826;6.896;2023-03-19T08:02:10;5.10;;;1.92;;
72132;SDS011;60008;50.826;6.896;2023-03-19T08:04:57;4.05;;;1.92;;
72132;SDS011;60008;50.826;6.896;2023-03-19T08:07:47;3.90;;;1.83;;
72132;SDS011;60008;50.826;6.896;2023-03-19T08:10:34;3.53;;;1.40;;
72132;SDS011;60008;50.826;6.896;2023-03-19T08:13:21;1.95;;;0.90;;
72132;SDS011;60008;50.826;6.896;2023-03-19T08:16:07;5.82;;;1.60;;
72132;SDS011;60008;50.826;6.896;2023-03-19T08:18:55;3.85;;;1.50;;
72132;SDS011;60008;50.826;6.896;2023-03-19T08:21:40;5.28;;;1.40;;
72132;SDS011;60008;50.826;6.896;2023-03-19T08:24:28;5.90;;;1.47;;
72132;SDS011;60008;50.826;6.896;2023-03-19T08:27:14;3.00;;;1.20;;
72132;SDS011;60008;50.826;6.896;2023-03-19T08:29:59;6.18;;;1.50;;
72132;SDS011;60008;50.826;6.896;2023-03-19T08:32:45;3.20;;;1.73;;
72132;SDS011;60008;50.826;6.896;2023-03-19T08:35:30;2.97;;;1.50;;
72132;SDS011;60008;50.826;6.896;2023-03-19T08:38:20;2.63;;;1.43;;
72132;SDS011;60008;50.826;6.896;2023-03-19T08:41:08;2.85;;;1.35;;
72132;SDS011;60008;50.826;6.896;2023-03-19T08:43:53;5.05;;;1.50;;
72132;SDS011;60008;50.826;6.896;2023-03-19T08:46:42;3.00;;;1.67;;
72132;SDS011;60008;50.826;6.896;2023-03-19T08:49:27;3.00;;;1.45;;
72132;SDS011;60008;50.826;6.896;2023-03-19T08:52:12;3.77;;;1.83;;
72132;SDS011;60008;50.826;6.896;2023-03-19T08:54:57;4.53;;;1.80;;
72132;SDS011;60008;50.826;6.896;2023-03-19T08:57:42;3.53;;;1.90;;
72132;SDS011;60008;50.826;6.896;2023-03-19T09:00:27;2.80;;;1.63;;
72132;SDS011;60008;50.826;6.896;2023-03-19T09:03:15;4.72;;;1.55;;
72132;SDS011;60008;50.826;6.896;2023-03-19T09:06:03;2.10;;;1.20;;
72132;SDS011;60008;50.826;6.896;2023-03-19T09:08:50;4.45;;;1.60;;
72132;SDS011;60008;50.826;6.896;2023-03-19T09:11:35;3.85;;;1.60;;
72132;SDS011;60008;50.826;6.896;2023-03-19T09:14:20;3.42;;;1.40;;
72132;SDS011;60008;50.826;6.896;2023-03-19T09:17:06;3.20;;;1.77;;
72132;SDS011;60008;50.826;6.896;2023-03-19T09:19:51;2.93;;;1.60;;
72132;SDS011;60008;50.826;6.896;2023-03-19T09:22:37;3.42;;;1.50;;
72132;SDS011;60008;50.826;6.896;2023-03-19T09:25:22;2.67;;;1.45;;
72132;SDS011;60008;50.826;6.896;2023-03-19T09:28:07;3.45;;;1.83;;
72132;SDS011;60008;50.826;6.896;2023-03-19T09:30:52;5.28;;;1.70;;
72132;SDS011;60008;50.826;6.896;2023-03-19T09:33:39;3.60;;;1.60;;
72132;SDS011;60008;50.826;6.896;2023-03-19T09:36:24;4.40;;;2.03;;
72132;SDS011;60008;50.826;6.896;2023-03-19T09:39:10;3.03;;;1.40;;
72132;SDS011;60008;50.826;6.896;2023-03-19T09:44:55;3.03;;;1.55;;
72132;SDS011;60008;50.826;6.896;2023-03-19T09:47:41;2.43;;;1.00;;
72132;SDS011;60008;50.826;6.896;2023-03-19T09:50:28;2.92;;;1.50;;
72132;SDS011;60008;50.826;6.896;2023-03-19T09:53:29;4.65;;;1.60;;
72132;SDS011;60008;50.826;6.896;2023-03-19T09:56:24;6.43;;;2.92;;
72132;SDS011;60008;50.826;6.896;2023-03-19T09:59:10;3.97;;;2.00;;
72132;SDS011;60008;50.826;6.896;2023-03-19T10:02:14;3.90;;;1.93;;
72132;SDS011;60008;50.826;6.896;2023-03-19T10:05:08;4.10;;;1.73;;
72132;SDS011;60008;50.826;6.896;2023-03-19T10:14:05;3.58;;;2.00;;
72132;SDS011;60008;50.826;6.896;2023-03-19T10:17:17;5.53;;;3.27;;
72132;SDS011;60008;50.826;6.896;2023-03-19T10:20:12;5.45;;;2.22;;
72132;SDS011;60008;50.826;6.896;2023-03-19T10:26:14;6.05;;;3.53;;
72132;SDS011;60008;50.826;6.896;2023-03-19T10:32:02;3.33;;;1.90;;
72132;SDS011;60008;50.826;6.896;2023-03-19T10:34:49;4.43;;;1.80;;
72132;SDS011;60008;50.826;6.896;2023-03-19T10:37:37;3.40;;;1.90;;
72132;SDS011;60008;50.826;6.896;2023-03-19T10:40:25;3.33;;;1.73;;
72132;SDS011;60008;50.826;6.896;2023-03-19T10:43:20;2.78;;;1.52;;
72132;SDS011;60008;50.826;6.896;2023-03-19T10:46:12;3.07;;;1.43;;
72132;SDS011;60008;50.826;6.896;2023-03-19T10:49:03;4.53;;;1.50;;
72132;SDS011;60008;50.826;6.896;2023-03-19T10:51:48;2.60;;;1.40;;
72132;SDS011;60008;50.826;6.896;2023-03-19T10:54:36;4.25;;;1.67;;
72132;SDS011;60008;50.826;6.896;2023-03-19T10:57:27;4.43;;;1.65;;
72132;SDS011;60008;50.826;6.896;2023-03-19T11:03:02;3.67;;;1.50;;
72132;SDS011;60008;50.826;6.896;2023-03-19T11:06:21;2.92;;;1.63;;
72132;SDS011;60008;50.826;6.896;2023-03-19T11:09:22;3.65;;;1.92;;
72132;SDS011;60008;50.826;6.896;2023-03-19T11:12:18;2.58;;;1.52;;
72132;SDS011;60008;50.826;6.896;2023-03-19T11:15:15;6.10;;;1.80;;
72132;SDS011;60008;50.826;6.896;2023-03-19T11:18:15;5.30;;;1.73;;
72132;SDS011;60008;50.826;6.896;2023-03-19T11:21:19;3.20;;;1.83;;
72132;SDS011;60008;50.826;6.896;2023-03-19T11:24:14;3.22;;;1.80;;
72132;SDS011;60008;50.826;6.896;2023-03-19T11:27:06;5.82;;;2.30;;
72132;SDS011;60008;50.826;6.896;2023-03-19T11:29:53;3.67;;;1.97;;
72132;SDS011;60008;50.826;6.896;2023-03-19T11:35:50;4.00;;;2.20;;
72132;SDS011;60008;50.826;6.896;2023-03-19T11:45:18;4.03;;;1.80;;
72132;SDS011;60008;50.826;6.896;2023-03-19T11:48:15;3.85;;;2.10;;
72132;SDS011;60008;50.826;6.896;2023-03-19T11:57:33;2.80;;;1.95;;
72132;SDS011;60008;50.826;6.896;2023-03-19T12:00:50;3.63;;;1.70;;
72132;SDS011;60008;50.826;6.896;2023-03-19T12:03:43;5.22;;;2.15;;
72132;SDS011;60008;50.826;6.896;2023-03-19T12:07:09;4.57;;;2.13;;
72132;SDS011;60008;50.826;6.896;2023-03-19T12:29:52;2.90;;;1.20;;
72132;SDS011;60008;50.826;6.896;2023-03-19T12:33:00;2.67;;;1.40;;
72132;SDS011;60008;50.826;6.896;2023-03-19T12:35:54;2.80;;;1.60;;
72132;SDS011;60008;50.826;6.896;2023-03-19T12:38:42;4.43;;;1.70;;
72132;SDS011;60008;50.826;6.896;2023-03-19T12:41:32;3.60;;;1.88;;
72132;SDS011;60008;50.826;6.896;2023-03-19T12:44:25;2.70;;;1.45;;
72132;SDS011;60008;50.826;6.896;2023-03-19T12:47:19;3.70;;;1.87;;
72132;SDS011;60008;50.826;6.896;2023-03-19T12:50:10;3.97;;;2.05;;
72132;SDS011;60008;50.826;6.896;2023-03-19T12:53:04;2.90;;;1.80;;
72132;SDS011;60008;50.826;6.896;2023-03-19T12:55:56;3.40;;;1.80;;
72132;SDS011;60008;50.826;6.896;2023-03-19T13:01:56;4.13;;;1.50;;
72132;SDS011;60008;50.826;6.896;2023-03-19T13:04:53;3.90;;;2.17;;
72132;SDS011;60008;50.826;6.896;2023-03-19T13:10:36;1.83;;;0.88;;
72132;SDS011;60008;50.826;6.896;2023-03-19T13:16:29;3.60;;;1.50;;
72132;SDS011;60008;50.826;6.896;2023-03-19T13:20:06;3.13;;;1.58;;
72132;SDS011;60008;50.826;6.896;2023-03-19T13:22:35;2.97;;;1.45;;
72132;SDS011;60008;50.826;6.896;2023-03-19T13:25:36;3.13;;;1.95;;
72132;SDS011;60008;50.826;6.896;2023-03-19T13:28:31;5.57;;;2.00;;
72132;SDS011;60008;50.826;6.896;2023-03-19T13:31:24;3.70;;;1.50;;
72132;SDS011;60008;50.826;6.896;2023-03-19T13:37:14;2.90;;;1.40;;
72132;SDS011;60008;50.826;6.896;2023-03-19T13:40:03;3.80;;;2.00;;
72132;SDS011;60008;50.826;6.896;2023-03-19T13:43:19;3.95;;;1.90;;
72132;SDS011;60008;50.826;6.896;2023-03-19T13:46:28;2.40;;;1.00;;
72132;SDS011;60008;50.826;6.896;2023-03-19T13:49:31;3.47;;;1.60;;
72132;SDS011;60008;50.826;6.896;2023-03-19T14:00:57;3.80;;;1.20;;
72132;SDS011;60008;50.826;6.896;2023-03-19T14:03:59;3.38;;;1.38;;
72132;SDS011;60008;50.826;6.896;2023-03-19T14:06:48;3.13;;;1.35;;
72132;SDS011;60008;50.826;6.896;2023-03-19T14:12:24;3.45;;;1.00;;
72132;SDS011;60008;50.826;6.896;2023-03-19T14:15:21;1.80;;;0.70;;
72132;SDS011;60008;50.826;6.896;2023-03-19T14:18:09;2.08;;;0.70;;
72132;SDS011;60008;50.826;6.896;2023-03-19T14:27:36;1.25;;;0.60;;
72132;SDS011;60008;50.826;6.896;2023-03-19T14:30:32;2.13;;;0.70;;
72132;SDS011;60008;50.826;6.896;2023-03-19T14:33:27;1.42;;;0.52;;
72132;SDS011;60008;50.826;6.896;2023-03-19T14:36:20;1.52;;;0.70;;
72132;SDS011;60008;50.826;6.896;2023-03-19T14:39:25;0.98;;;0.50;;
72132;SDS011;60008;50.826;6.896;2023-03-19T14:42:17;2.88;;;1.30;;
72132;SDS011;60008;50.826;6.896;2023-03-19T14:51:18;3.00;;;1.23;;
72132;SDS011;60008;50.826;6.896;2023-03-19T14:54:18;1.52;;;0.77;;
72132;SDS011;60008;50.826;6.896;2023-03-19T14:57:19;1.13;;;0.60;;
72132;SDS011;60008;50.826;6.896;2023-03-19T15:00:14;2.10;;;0.90;;
72132;SDS011;60008;50.826;6.896;2023-03-19T15:03:01;7.65;;;5.70;;
72132;SDS011;60008;50.826;6.896;2023-03-19T15:05:48;1.85;;;1.08;;
72132;SDS011;60008;50.826;6.896;2023-03-19T15:08:40;2.30;;;1.10;;
72132;SDS011;60008;50.826;6.896;2023-03-19T15:11:37;8.38;;;4.88;;
72132;SDS011;60008;50.826;6.896;2023-03-19T15:14:41;4.17;;;1.97;;
72132;SDS011;60008;50.826;6.896;2023-03-19T15:17:33;4.93;;;2.90;;
72132;SDS011;60008;50.826;6.896;2023-03-19T15:20:21;6.65;;;1.90;;
72132;SDS011;60008;50.826;6.896;2023-03-19T15:23:08;3.58;;;1.80;;
72132;SDS011;60008;50.826;6.896;2023-03-19T15:26:10;3.15;;;1.20;;
72132;SDS011;60008;50.826;6.896;2023-03-19T15:28:55;3.67;;;1.20;;
72132;SDS011;60008;50.826;6.896;2023-03-19T15:31:45;2.35;;;1.00;;
72132;SDS011;60008;50.826;6.896;2023-03-19T15:34:45;2.80;;;1.02;;
72132;SDS011;60008;50.826;6.896;2023-03-19T15:37:32;3.33;;;0.90;;
72132;SDS011;60008;50.826;6.896;2023-03-19T15:40:22;2.67;;;1.05;;
72132;SDS011;60008;50.826;6.896;2023-03-19T15:43:11;2.73;;;0.90;;
72132;SDS011;60008;50.826;6.896;2023-03-19T15:45:57;2.40;;;1.10;;
72132;SDS011;60008;50.826;6.896;2023-03-19T15:48:45;2.30;;;1.00;;
72132;SDS011;60008;50.826;6.896;2023-03-19T15:51:35;2.42;;;0.90;;
72132;SDS011;60008;50.826;6.896;2023-03-19T15:54:20;2.35;;;0.75;;
72132;SDS011;60008;50.826;6.896;2023-03-19T15:57:06;1.73;;;0.90;;
72132;SDS011;60008;50.826;6.896;2023-03-19T15:59:54;1.65;;;0.75;;
72132;SDS011;60008;50.826;6.896;2023-03-19T16:02:41;4.47;;;1.45;;
72132;SDS011;60008;50.826;6.896;2023-03-19T16:05:32;3.10;;;1.60;;
72132;SDS011;60008;50.826;6.896;2023-03-19T16:08:25;4.50;;;1.65;;
72132;SDS011;60008;50.826;6.896;2023-03-19T16:17:01;4.63;;;1.77;;
72132;SDS011;60008;50.826;6.896;2023-03-19T16:19:58;3.28;;;1.67;;
72132;SDS011;60008;50.826;6.896;2023-03-19T16:22:49;4.05;;;1.50;;
72132;SDS011;60008;50.826;6.896;2023-03-19T16:25:38;3.23;;;1.67;;
72132;SDS011;60008;50.826;6.896;2023-03-19T16:28:24;3.17;;;1.73;;
72132;SDS011;60008;50.826;6.896;2023-03-19T16:31:17;3.03;;;1.40;;
72132;SDS011;60008;50.826;6.896;2023-03-19T16:34:05;4.05;;;1.60;;
72132;SDS011;60008;50.826;6.896;2023-03-19T16:41:15;2.60;;;1.20;;
72132;SDS011;60008;50.826;6.896;2023-03-19T16:44:15;4.45;;;1.40;;
72132;SDS011;60008;50.826;6.896;2023-03-19T16:47:01;2.85;;;1.52;;
72132;SDS011;60008;50.826;6.896;2023-03-19T16:49:53;2.15;;;1.30;;
72132;SDS011;60008;50.826;6.896;2023-03-19T16:52:39;2.78;;;1.10;;
72132;SDS011;60008;50.826;6.896;2023-03-19T16:55:26;2.57;;;1.30;;
72132;SDS011;60008;50.826;6.896;2023-03-19T16:58:16;2.85;;;1.30;;
72132;SDS011;60008;50.826;6.896;2023-03-19T17:01:05;2.97;;;1.30;;
72132;SDS011;60008;50.826;6.896;2023-03-19T17:04:00;1.77;;;0.88;;
72132;SDS011;60008;50.826;6.896;2023-03-19T17:06:45;2.47;;;1.20;;
72132;SDS011;60008;50.826;6.896;2023-03-19T17:09:31;2.43;;;1.23;;
72132;SDS011;60008;50.826;6.896;2023-03-19T17:12:16;15.65;;;7.65;;
72132;SDS011;60008;50.826;6.896;2023-03-19T17:15:01;5.78;;;2.67;;
72132;SDS011;60008;50.826;6.896;2023-03-19T17:17:46;4.55;;;2.30;;
72132;SDS011;60008;50.826;6.896;2023-03-19T17:20:33;5.70;;;1.90;;
72132;SDS011;60008;50.826;6.896;2023-03-19T17:23:20;2.90;;;1.27;;
72132;SDS011;60008;50.826;6.896;2023-03-19T17:26:18;3.78;;;1.90;;
72132;SDS011;60008;50.826;6.896;2023-03-19T17:29:07;3.50;;;2.00;;
72132;SDS011;60008;50.826;6.896;2023-03-19T17:31:52;3.03;;;1.50;;
72132;SDS011;60008;50.826;6.896;2023-03-19T17:34:38;3.33;;;1.50;;
72132;SDS011;60008;50.826;6.896;2023-03-19T17:37:24;3.27;;;1.47;;
72132;SDS011;60008;50.826;6.896;2023-03-19T17:40:15;3.38;;;1.70;;
72132;SDS011;60008;50.826;6.896;2023-03-19T17:43:10;2.88;;;1.52;;
72132;SDS011;60008;50.826;6.896;2023-03-19T17:45:56;5.40;;;1.95;;
72132;SDS011;60008;50.826;6.896;2023-03-19T17:48:41;4.30;;;2.33;;
72132;SDS011;60008;50.826;6.896;2023-03-19T17:51:30;4.93;;;2.30;;
72132;SDS011;60008;50.826;6.896;2023-03-19T17:54:15;4.60;;;2.28;;
72132;SDS011;60008;50.826;6.896;2023-03-19T17:57:01;5.47;;;2.90;;
72132;SDS011;60008;50.826;6.896;2023-03-19T17:59:45;6.32;;;3.38;;
72132;SDS011;60008;50.826;6.896;2023-03-19T18:02:32;7.70;;;3.65;;
72132;SDS011;60008;50.826;6.896;2023-03-19T18:05:20;6.87;;;3.57;;
72132;SDS011;60008;50.826;6.896;2023-03-19T18:08:12;6.32;;;3.15;;
72132;SDS011;60008;50.826;6.896;2023-03-19T18:10:59;5.97;;;3.15;;
72132;SDS011;60008;50.826;6.896;2023-03-19T18:13:44;6.50;;;3.38;;
72132;SDS011;60008;50.826;6.896;2023-03-19T18:16:30;5.75;;;2.88;;
72132;SDS011;60008;50.826;6.896;2023-03-19T18:19:18;6.33;;;3.40;;
72132;SDS011;60008;50.826;6.896;2023-03-19T18:22:11;10.77;;;4.32;;
72132;SDS011;60008;50.826;6.896;2023-03-19T18:24:59;8.05;;;4.25;;
72132;SDS011;60008;50.826;6.896;2023-03-19T18:27:48;7.43;;;3.92;;
72132;SDS011;60008;50.826;6.896;2023-03-19T18:30:37;5.65;;;3.08;;
72132;SDS011;60008;50.826;6.896;2023-03-19T18:33:26;9.10;;;4.20;;
72132;SDS011;60008;50.826;6.896;2023-03-19T18:36:17;7.18;;;3.50;;
72132;SDS011;60008;50.826;6.896;2023-03-19T18:39:11;8.95;;;4.10;;
72132;SDS011;60008;50.826;6.896;2023-03-19T18:42:04;11.45;;;4.57;;
72132;SDS011;60008;50.826;6.896;2023-03-19T18:44:49;7.68;;;4.35;;
72132;SDS011;60008;50.826;6.896;2023-03-19T18:47:35;7.47;;;4.10;;
72132;SDS011;60008;50.826;6.896;2023-03-19T18:50:21;11.43;;;4.95;;
72132;SDS011;60008;50.826;6.896;2023-03-19T18:53:07;7.68;;;4.00;;